createdAt,value
2017-06-25T00:02:19.291Z,86.10
2017-06-25T00:04:47.792Z,86.00
2017-06-25T00:07:16.873Z,86.00
2017-06-25T00:09:45.179Z,86.00
2017-06-25T00:12:14.368Z,86.60
2017-06-25T00:14:42.760Z,86.50
2017-06-25T00:17:11.960Z,86.00
2017-06-25T00:19:40.284Z,86.10
2017-06-25T00:22:09.729Z,87.70
2017-06-25T00:24:39.804Z,87.90
2017-06-25T00:27:08.210Z,86.80
2017-06-25T00:29:36.594Z,86.80
2017-06-25T00:32:04.940Z,87.10
2017-06-25T00:34:33.989Z,86.90
2017-06-25T00:37:03.030Z,87.60
2017-06-25T00:39:31.338Z,87.00
2017-06-25T00:41:59.716Z,87.00
2017-06-25T00:44:28.000Z,87.00
2017-06-25T00:46:56.374Z,87.00
2017-06-25T00:49:24.630Z,87.20
2017-06-25T00:51:52.918Z,87.40
2017-06-25T00:54:26.978Z,87.00
2017-06-25T00:56:55.308Z,86.90
2017-06-25T00:59:23.594Z,87.10
2017-06-25T01:01:51.961Z,87.30
2017-06-25T01:04:20.241Z,87.40
2017-06-25T01:06:48.534Z,87.40
2017-06-25T01:09:16.814Z,87.20
2017-06-25T01:11:45.166Z,86.90
2017-06-25T01:14:13.550Z,86.80
2017-06-25T01:16:41.842Z,86.80
2017-06-25T01:19:10.203Z,87.10
2017-06-25T01:21:38.478Z,86.80
2017-06-25T01:24:06.758Z,87.00
2017-06-25T01:26:35.143Z,87.10
2017-06-25T01:29:03.406Z,87.30
2017-06-25T01:31:31.712Z,87.30
2017-06-25T01:34:00.091Z,87.10
2017-06-25T01:36:28.401Z,86.90
2017-06-25T01:38:56.769Z,87.20
2017-06-25T01:41:25.051Z,87.20
2017-06-25T01:43:53.322Z,87.30
2017-06-25T01:46:21.600Z,87.30
2017-06-25T01:48:49.896Z,87.50
2017-06-25T01:51:18.198Z,87.20
2017-06-25T01:53:47.232Z,87.90
2017-06-25T01:56:15.550Z,87.90
2017-06-25T01:58:43.825Z,88.30
2017-06-25T02:01:12.098Z,88.00
2017-06-25T02:03:40.391Z,88.20
2017-06-25T02:06:08.659Z,88.70
2017-06-25T02:08:37.042Z,88.70
2017-06-25T02:11:05.312Z,88.90
2017-06-25T02:13:34.541Z,89.20
2017-06-25T02:16:02.816Z,89.00
2017-06-25T02:18:31.098Z,89.20
2017-06-25T02:20:59.467Z,89.20
2017-06-25T02:23:27.744Z,89.50
2017-06-25T02:25:56.031Z,89.50
2017-06-25T02:28:24.300Z,89.50
2017-06-25T02:30:52.618Z,89.30
2017-06-25T02:33:20.905Z,89.90
2017-06-25T02:35:49.174Z,90.00
2017-06-25T02:38:17.455Z,90.00
2017-06-25T02:40:45.731Z,90.10
2017-06-25T02:43:14.087Z,90.10
2017-06-25T02:45:43.148Z,90.00
2017-06-25T02:48:11.491Z,90.00
2017-06-25T02:50:39.767Z,90.10
2017-06-25T02:53:08.075Z,90.20
2017-06-25T02:55:36.375Z,90.10
2017-06-25T02:58:05.406Z,91.40
2017-06-25T03:00:33.716Z,91.30
2017-06-25T03:03:02.002Z,91.90
2017-06-25T03:05:30.324Z,92.30
2017-06-25T03:07:58.604Z,93.10
2017-06-25T03:10:26.938Z,93.50
2017-06-25T03:12:55.318Z,93.80
2017-06-25T03:15:23.708Z,94.00
2017-06-25T03:17:52.135Z,94.20
2017-06-25T03:20:20.474Z,94.60
2017-06-25T03:22:49.550Z,95.50
2017-06-25T03:25:17.810Z,95.40
2017-06-25T03:27:46.114Z,95.90
2017-06-25T03:30:14.504Z,96.30
2017-06-25T03:32:42.854Z,96.90
2017-06-25T03:35:11.142Z,97.10
2017-06-25T03:37:39.522Z,97.30
2017-06-25T03:40:08.412Z,97.40
2017-06-25T03:42:36.679Z,97.50
2017-06-25T03:45:05.072Z,97.60
2017-06-25T03:47:33.339Z,97.70
2017-06-25T03:50:01.696Z,98.00
2017-06-25T03:52:29.974Z,98.00
2017-06-25T03:54:58.288Z,98.30
2017-06-25T03:57:26.671Z,98.70
2017-06-25T03:59:54.951Z,99.20
2017-06-25T04:02:23.328Z,99.40
2017-06-25T04:04:51.602Z,99.90
2017-06-25T04:07:19.986Z,99.80
2017-06-25T04:09:48.359Z,99.90
2017-06-25T04:12:16.677Z,99.90
2017-06-25T04:14:45.048Z,99.90
2017-06-25T04:17:13.331Z,99.90
2017-06-25T04:19:41.707Z,99.90
2017-06-25T04:22:09.988Z,99.90
2017-06-25T04:24:38.362Z,99.90
2017-06-25T04:27:06.642Z,99.90
2017-06-25T04:29:35.052Z,99.90
2017-06-25T04:32:04.138Z,99.90
2017-06-25T04:34:33.210Z,99.90
2017-06-25T04:37:01.469Z,99.90
2017-06-25T04:39:29.785Z,99.90
2017-06-25T04:41:58.092Z,99.90
2017-06-25T04:44:26.354Z,99.90
2017-06-25T04:46:54.749Z,99.90
2017-06-25T04:49:23.018Z,99.90
2017-06-25T04:51:51.410Z,99.90
2017-06-25T04:54:20.588Z,99.60
2017-06-25T04:56:48.898Z,99.60
2017-06-25T04:59:17.951Z,99.30
2017-06-25T05:01:46.224Z,99.30
2017-06-25T05:04:14.615Z,99.30
2017-06-25T05:06:42.903Z,98.90
2017-06-25T05:09:11.172Z,98.80
2017-06-25T05:11:39.542Z,98.60
2017-06-25T05:14:07.938Z,98.70
2017-06-25T05:16:36.205Z,98.50
2017-06-25T05:19:04.525Z,98.10
2017-06-25T05:21:33.546Z,97.60
2017-06-25T05:24:01.867Z,97.60
2017-06-25T05:26:30.150Z,97.80
2017-06-25T05:28:58.518Z,97.60
2017-06-25T05:31:26.812Z,97.20
2017-06-25T05:36:33.283Z,97.00
2017-06-25T05:39:01.646Z,96.80
2017-06-25T05:41:30.031Z,96.70
2017-06-25T05:43:58.314Z,96.20
2017-06-25T05:46:26.595Z,96.20
2017-06-25T05:48:54.883Z,95.50
2017-06-25T05:51:23.145Z,95.30
2017-06-25T05:53:51.468Z,95.00
2017-06-25T05:56:19.729Z,95.20
2017-06-25T05:58:48.787Z,94.60
2017-06-25T06:01:17.162Z,94.60
2017-06-25T06:03:45.430Z,94.60
2017-06-25T06:06:13.772Z,94.70
2017-06-25T06:08:42.911Z,94.40
2017-06-25T06:11:11.188Z,94.40
2017-06-25T06:13:39.467Z,94.50
2017-06-25T06:16:07.751Z,94.20
2017-06-25T06:18:36.030Z,94.90
2017-06-25T06:21:04.299Z,94.80
2017-06-25T06:23:32.786Z,95.30
2017-06-25T06:26:01.047Z,95.60
2017-06-25T06:28:29.331Z,95.90
2017-06-25T06:30:57.718Z,95.40
2017-06-25T06:33:26.001Z,95.60
2017-06-25T06:35:54.483Z,95.50
2017-06-25T06:38:22.867Z,94.90
2017-06-25T06:40:51.326Z,95.00
2017-06-25T06:43:19.827Z,95.20
2017-06-25T06:45:48.088Z,95.30
2017-06-25T06:48:16.587Z,95.30
2017-06-25T06:50:44.848Z,95.10
2017-06-25T06:53:13.138Z,95.30
2017-06-25T06:55:41.532Z,95.70
2017-06-25T06:58:09.807Z,95.20
2017-06-25T07:00:38.223Z,95.00
2017-06-25T07:03:06.463Z,95.50
2017-06-25T07:05:34.824Z,95.40
2017-06-25T07:08:03.094Z,95.80
2017-06-25T07:10:31.475Z,95.10
2017-06-25T07:12:59.751Z,94.80
2017-06-25T07:15:28.131Z,94.00
2017-06-25T07:17:56.955Z,93.80
2017-06-25T07:20:26.029Z,93.20
2017-06-25T07:22:54.302Z,93.20
2017-06-25T07:25:22.584Z,92.90
2017-06-25T07:27:50.859Z,92.60
2017-06-25T07:30:19.176Z,92.00
2017-06-25T07:32:47.441Z,91.60
2017-06-25T07:35:15.722Z,91.50
2017-06-25T07:37:44.020Z,91.10
2017-06-25T07:40:12.319Z,90.80
2017-06-25T07:42:40.590Z,90.50
2017-06-25T07:45:08.852Z,90.30
2017-06-25T07:47:37.918Z,90.50
2017-06-25T07:50:06.189Z,90.50
2017-06-25T07:52:34.458Z,90.10
2017-06-25T07:55:02.736Z,87.90
2017-06-25T07:57:31.012Z,88.70
2017-06-25T07:59:59.266Z,87.40
2017-06-25T08:02:27.554Z,86.20
2017-06-25T08:04:55.798Z,86.00
2017-06-25T08:07:24.108Z,85.80
2017-06-25T08:09:52.384Z,85.80
2017-06-25T08:12:20.661Z,84.30
2017-06-25T08:14:48.949Z,85.00
2017-06-25T08:17:17.221Z,84.70
2017-06-25T08:19:45.516Z,82.60
2017-06-25T08:22:14.560Z,81.60
2017-06-25T08:24:42.845Z,81.50
2017-06-25T08:27:11.104Z,82.00
2017-06-25T08:29:39.390Z,80.50
2017-06-25T08:32:07.668Z,80.00
2017-06-25T08:34:35.935Z,81.00
2017-06-25T08:37:04.223Z,82.00
2017-06-25T08:39:32.502Z,82.30
2017-06-25T08:42:00.774Z,83.00
2017-06-25T08:44:29.068Z,84.00
2017-06-25T08:46:57.331Z,82.90
2017-06-25T08:49:25.746Z,82.90
2017-06-25T08:51:53.983Z,83.60
2017-06-25T08:54:22.357Z,83.70
2017-06-25T08:56:50.724Z,83.20
2017-06-25T08:59:18.974Z,82.50
2017-06-25T09:01:47.265Z,81.20
2017-06-25T09:04:15.552Z,80.30
2017-06-25T09:06:43.822Z,80.70
2017-06-25T09:09:12.085Z,80.90
2017-06-25T09:11:40.359Z,81.00
2017-06-25T09:14:08.671Z,81.80
2017-06-25T09:16:36.943Z,80.80
2017-06-25T09:19:05.221Z,79.50
2017-06-25T09:21:33.595Z,78.90
2017-06-25T09:24:01.863Z,80.40
2017-06-25T09:26:31.154Z,80.10
2017-06-25T09:28:59.406Z,79.90
2017-06-25T09:31:27.672Z,80.70
2017-06-25T09:33:55.986Z,80.20
2017-06-25T09:36:24.262Z,82.00
2017-06-25T09:38:52.538Z,82.80
2017-06-25T09:41:20.791Z,81.90
2017-06-25T09:43:49.098Z,83.30
2017-06-25T09:46:17.374Z,84.10
2017-06-25T09:48:45.638Z,85.00
2017-06-25T09:51:13.891Z,85.30
2017-06-25T09:53:42.216Z,85.30
2017-06-25T09:56:10.495Z,86.30
2017-06-25T09:58:38.872Z,86.90
2017-06-25T10:01:07.254Z,87.60
2017-06-25T10:03:35.534Z,87.80
2017-06-25T10:06:03.791Z,89.40
2017-06-25T10:08:32.083Z,89.00
2017-06-25T10:11:00.348Z,89.00
2017-06-25T10:13:28.607Z,87.00
2017-06-25T10:15:56.894Z,86.00
2017-06-25T10:18:25.295Z,84.70
2017-06-25T10:20:53.542Z,83.90
2017-06-25T10:23:21.818Z,81.60
2017-06-25T10:25:50.111Z,80.50
2017-06-25T10:28:18.391Z,79.40
2017-06-25T10:30:46.762Z,77.90
2017-06-25T10:33:15.037Z,79.10
2017-06-25T10:35:43.334Z,77.80
2017-06-25T10:38:11.595Z,77.40
2017-06-25T10:40:39.879Z,77.20
2017-06-25T10:43:08.153Z,77.50
2017-06-25T10:45:36.457Z,76.70
2017-06-25T10:48:04.782Z,76.80
2017-06-25T10:50:33.067Z,76.30
2017-06-25T10:53:01.319Z,78.00
2017-06-25T10:55:29.599Z,77.80
2017-06-25T10:57:57.850Z,77.40
2017-06-25T11:00:26.099Z,75.50
2017-06-25T11:02:54.453Z,74.80
2017-06-25T11:05:22.731Z,75.80
2017-06-25T11:07:51.112Z,73.70
2017-06-25T11:10:19.374Z,74.70
2017-06-25T11:12:47.657Z,70.80
2017-06-25T11:15:15.908Z,71.60
2017-06-25T11:17:44.206Z,70.10
2017-06-25T11:20:12.467Z,71.60
2017-06-25T11:22:40.749Z,69.10
2017-06-25T11:25:09.046Z,69.70
2017-06-25T11:27:37.327Z,69.60
2017-06-25T11:30:05.575Z,68.60
2017-06-25T11:32:33.847Z,70.10
2017-06-25T11:35:02.147Z,71.20
2017-06-25T11:37:30.402Z,72.50
2017-06-25T11:39:58.715Z,72.60
2017-06-25T11:42:26.959Z,70.80
2017-06-25T11:44:55.230Z,68.90
2017-06-25T11:47:23.539Z,68.90
2017-06-25T11:49:51.822Z,66.60
2017-06-25T11:52:20.198Z,65.00
2017-06-25T11:54:48.479Z,63.30
2017-06-25T11:57:16.727Z,63.60
2017-06-25T11:59:45.003Z,63.70
2017-06-25T12:02:13.309Z,62.80
2017-06-25T12:04:41.679Z,63.40
2017-06-25T12:07:09.935Z,65.00
2017-06-25T12:09:38.238Z,66.50
2017-06-25T12:12:06.520Z,67.00
2017-06-25T12:14:34.879Z,69.40
2017-06-25T12:17:03.162Z,70.40
2017-06-25T12:19:32.194Z,87.70
2017-06-25T12:22:00.497Z,87.50
2017-06-25T12:24:28.770Z,92.70
2017-06-25T12:26:57.042Z,95.10
2017-06-25T12:29:25.328Z,97.00
2017-06-25T12:31:53.699Z,97.40
2017-06-25T12:34:22.141Z,98.80
2017-06-25T12:36:50.403Z,99.90
2017-06-25T12:39:18.760Z,99.90
2017-06-25T12:41:47.049Z,99.20
2017-06-25T12:44:16.126Z,98.70
2017-06-25T12:46:44.383Z,98.70
2017-06-25T12:49:12.676Z,99.80
2017-06-25T12:51:41.169Z,98.70
2017-06-25T12:54:10.199Z,95.60
2017-06-25T12:56:38.510Z,95.60
2017-06-25T12:59:06.795Z,91.80
2017-06-25T13:01:35.880Z,91.90
2017-06-25T13:04:04.230Z,91.90
2017-06-25T13:06:32.475Z,93.80
2017-06-25T13:09:01.506Z,95.00
2017-06-25T13:11:29.823Z,95.00
2017-06-25T13:13:58.115Z,95.80
2017-06-25T13:16:26.415Z,95.80
2017-06-25T13:18:54.772Z,96.70
2017-06-25T13:21:23.135Z,97.00
2017-06-25T13:23:51.502Z,97.50
2017-06-25T13:26:20.751Z,97.90
2017-06-25T13:28:49.822Z,99.70
2017-06-25T13:31:18.078Z,99.60
2017-06-25T13:33:46.394Z,98.00
2017-06-25T13:36:14.663Z,98.90
2017-06-25T13:38:42.977Z,97.90
2017-06-25T13:41:11.335Z,97.50
2017-06-25T13:43:40.276Z,96.80
2017-06-25T13:46:08.596Z,96.50
2017-06-25T13:48:36.865Z,95.70
2017-06-25T13:51:05.244Z,95.70
2017-06-25T13:53:33.502Z,95.20
2017-06-25T13:56:01.810Z,95.70
2017-06-25T13:58:30.086Z,95.60
2017-06-25T14:00:58.419Z,95.50
2017-06-25T14:03:26.848Z,96.00
2017-06-25T14:05:55.491Z,94.80
2017-06-25T14:08:23.771Z,93.80
2017-06-25T14:10:52.820Z,93.30
2017-06-25T14:13:21.220Z,92.20
2017-06-25T14:15:49.468Z,91.80
2017-06-25T14:18:17.798Z,86.60
2017-06-25T14:20:46.476Z,83.80
2017-06-25T14:23:14.747Z,79.80
2017-06-25T14:25:42.998Z,76.10
2017-06-25T14:28:11.297Z,74.80
2017-06-25T14:30:40.345Z,74.20
2017-06-25T14:33:08.718Z,73.80
2017-06-25T14:35:36.979Z,72.30
2017-06-25T14:38:06.428Z,74.10
2017-06-25T14:40:35.307Z,73.90
2017-06-25T14:43:03.587Z,74.70
2017-06-25T14:45:31.868Z,76.10
2017-06-25T14:48:00.246Z,77.70
2017-06-25T14:50:28.602Z,77.50
2017-06-25T14:52:56.987Z,78.60
2017-06-25T14:55:26.167Z,78.50
2017-06-25T14:57:54.476Z,78.70
2017-06-25T15:00:22.791Z,80.50
2017-06-25T15:02:51.060Z,80.50
2017-06-25T15:05:20.544Z,80.40
2017-06-25T15:07:48.787Z,77.70
2017-06-25T15:10:17.124Z,78.60
2017-06-25T15:12:45.404Z,74.60
2017-06-25T15:15:13.676Z,72.20
2017-06-25T15:17:41.947Z,71.30
2017-06-25T15:20:10.221Z,67.10
2017-06-25T15:22:38.475Z,64.30
2017-06-25T15:25:06.815Z,62.90
2017-06-25T15:27:35.848Z,63.80
2017-06-25T15:30:04.123Z,63.70
2017-06-25T15:32:32.709Z,65.00
2017-06-25T15:35:01.057Z,65.90
2017-06-25T15:37:29.400Z,66.50
2017-06-25T15:39:57.650Z,62.30
2017-06-25T15:42:25.962Z,58.20
2017-06-25T15:44:54.222Z,57.40
2017-06-25T15:47:22.509Z,58.90
2017-06-25T15:49:50.762Z,63.50
2017-06-25T15:52:19.044Z,66.70
2017-06-25T15:54:47.308Z,71.50
2017-06-25T15:57:15.622Z,74.80
2017-06-25T15:59:43.886Z,78.40
2017-06-25T16:02:12.186Z,81.10
2017-06-25T16:04:40.471Z,82.90
2017-06-25T16:07:08.722Z,84.00
2017-06-25T16:09:37.020Z,85.10
2017-06-25T16:12:05.429Z,86.70
2017-06-25T16:14:34.432Z,89.00
2017-06-25T16:17:02.769Z,88.90
2017-06-25T16:19:31.035Z,88.90
2017-06-25T16:21:59.326Z,90.00
2017-06-25T16:24:27.683Z,90.80
2017-06-25T16:26:55.990Z,91.50
2017-06-25T16:29:24.254Z,92.70
2017-06-25T16:31:52.511Z,94.00
2017-06-25T16:34:21.545Z,94.30
2017-06-25T16:36:49.836Z,94.20
2017-06-25T16:39:18.110Z,96.10
2017-06-25T16:41:46.388Z,97.50
2017-06-25T16:44:14.690Z,98.60
2017-06-25T16:46:42.960Z,98.60
2017-06-25T16:49:11.211Z,99.00
2017-06-25T16:51:39.473Z,99.80
2017-06-25T16:54:07.776Z,99.90
2017-06-25T16:56:36.150Z,99.90
2017-06-25T16:59:04.422Z,99.90
2017-06-25T17:01:32.690Z,99.90
2017-06-25T17:04:00.997Z,99.90
2017-06-25T17:06:29.254Z,99.90
2017-06-25T17:08:57.549Z,99.90
2017-06-25T17:11:25.794Z,99.90
2017-06-25T17:13:54.086Z,99.90
2017-06-25T17:16:22.373Z,99.90
2017-06-25T17:18:50.656Z,99.90
2017-06-25T17:21:18.939Z,99.90
2017-06-25T17:23:47.182Z,99.90
2017-06-25T17:26:15.477Z,99.90
2017-06-25T17:28:43.746Z,99.90
2017-06-25T17:31:12.023Z,99.90
2017-06-25T17:33:40.287Z,99.90
2017-06-25T17:36:08.550Z,99.90
2017-06-25T17:38:36.814Z,99.70
2017-06-25T17:41:05.157Z,98.90
2017-06-25T17:43:33.514Z,99.40
2017-06-25T17:46:02.581Z,98.40
2017-06-25T17:48:30.899Z,98.50
2017-06-25T17:50:59.166Z,98.30
2017-06-25T17:53:27.438Z,97.60
2017-06-25T17:55:55.725Z,96.80
2017-06-25T17:58:24.008Z,96.10
2017-06-25T18:00:52.274Z,96.20
2017-06-25T18:03:20.550Z,96.20
2017-06-25T18:05:48.842Z,96.60
2017-06-25T18:08:17.106Z,96.40
2017-06-25T18:10:45.478Z,96.20
2017-06-25T18:13:13.748Z,95.30
2017-06-25T18:15:42.012Z,95.10
2017-06-25T18:18:10.290Z,94.50
2017-06-25T18:20:38.552Z,94.60
2017-06-25T18:23:06.810Z,95.30
2017-06-25T18:25:35.866Z,94.30
2017-06-25T18:28:04.123Z,94.30
2017-06-25T18:30:32.394Z,93.30
2017-06-25T18:33:00.652Z,91.30
2017-06-25T18:35:28.954Z,90.20
2017-06-25T18:37:57.212Z,90.70
2017-06-25T18:40:25.508Z,89.50
2017-06-25T18:42:53.790Z,86.60
2017-06-25T18:45:22.183Z,86.40
2017-06-25T18:47:50.458Z,84.90
2017-06-25T18:50:18.759Z,86.40
2017-06-25T18:52:47.014Z,85.70
2017-06-25T18:55:15.382Z,87.30
2017-06-25T18:57:43.647Z,88.00
2017-06-25T19:00:11.915Z,90.10
2017-06-25T19:02:40.253Z,90.40
2017-06-25T19:05:09.295Z,91.50
2017-06-25T19:07:37.573Z,91.50
2017-06-25T19:10:05.835Z,92.30
2017-06-25T19:12:34.116Z,92.50
2017-06-25T19:15:02.414Z,92.90
2017-06-25T19:17:30.675Z,93.00
2017-06-25T19:19:58.947Z,93.40
2017-06-25T19:22:27.239Z,94.00
2017-06-25T19:24:55.510Z,94.30
2017-06-25T19:27:23.787Z,95.10
2017-06-25T19:29:52.081Z,94.50
2017-06-25T19:32:20.343Z,94.60
2017-06-25T19:34:48.605Z,95.00
2017-06-25T19:37:16.940Z,95.00
2017-06-25T19:39:46.004Z,94.70
2017-06-25T19:42:14.266Z,94.70
2017-06-25T19:44:42.542Z,94.80
2017-06-25T19:47:10.796Z,95.40
2017-06-25T19:49:39.103Z,95.20
2017-06-25T19:52:07.383Z,95.40
2017-06-25T19:54:35.777Z,95.90
2017-06-25T19:57:04.079Z,95.60
2017-06-25T19:59:32.378Z,95.70
2017-06-25T20:02:01.468Z,95.70
2017-06-25T20:04:29.838Z,95.60
2017-06-25T20:06:58.099Z,95.30
2017-06-25T20:09:26.402Z,95.60
2017-06-25T20:11:54.716Z,95.80
2017-06-25T20:14:23.046Z,95.90
2017-06-25T20:16:51.411Z,96.10
2017-06-25T20:19:19.755Z,95.80
2017-06-25T20:21:48.236Z,95.80
2017-06-25T20:24:16.615Z,95.70
2017-06-25T20:26:44.890Z,96.00
2017-06-25T20:29:13.130Z,95.90
2017-06-25T20:31:41.410Z,96.20
2017-06-25T20:34:09.727Z,96.40
2017-06-25T20:36:38.003Z,96.20
2017-06-25T20:39:06.285Z,96.40
2017-06-25T20:41:34.528Z,97.10
2017-06-25T20:44:02.809Z,98.10
2017-06-25T20:46:31.088Z,98.90
2017-06-25T20:48:59.396Z,99.10
2017-06-25T20:51:27.708Z,99.70
2017-06-25T20:53:56.770Z,99.90
2017-06-25T20:56:25.037Z,99.90
2017-06-25T20:58:53.419Z,99.90
2017-06-25T21:01:21.797Z,99.90
2017-06-25T21:03:50.061Z,99.90
2017-06-25T21:06:18.344Z,99.90
2017-06-25T21:08:46.626Z,99.90
2017-06-25T21:11:14.916Z,99.90
2017-06-25T21:13:43.291Z,99.90
2017-06-25T21:16:11.555Z,99.90
2017-06-25T21:18:39.965Z,99.90
2017-06-25T21:21:08.731Z,99.90
2017-06-25T21:23:37.017Z,99.90
2017-06-25T21:26:05.283Z,99.90
2017-06-25T21:28:33.659Z,99.90
2017-06-25T21:31:02.728Z,99.90
2017-06-25T21:33:31.034Z,99.90
2017-06-25T21:36:00.065Z,99.90
2017-06-25T21:38:28.338Z,99.90
2017-06-25T21:40:56.618Z,99.90
2017-06-25T21:43:24.934Z,99.90
2017-06-25T21:45:53.223Z,99.90
2017-06-25T21:48:21.484Z,99.90
2017-06-25T21:50:49.868Z,99.90
2017-06-25T21:53:18.158Z,99.90
2017-06-25T21:55:46.435Z,99.90
2017-06-25T21:58:14.724Z,99.90
2017-06-25T22:00:43.787Z,99.90
2017-06-25T22:03:12.169Z,99.90
2017-06-25T22:05:40.554Z,99.90
2017-06-25T22:08:08.938Z,99.90
2017-06-25T22:10:37.205Z,99.90
2017-06-25T22:13:05.455Z,99.90
2017-06-25T22:15:33.764Z,99.90
2017-06-25T22:18:02.029Z,99.90
2017-06-25T22:20:30.312Z,99.90
2017-06-25T22:22:58.558Z,99.90
2017-06-25T22:25:26.840Z,99.90
2017-06-25T22:27:55.140Z,99.90
2017-06-25T22:30:23.425Z,99.90
2017-06-25T22:32:51.706Z,99.90
2017-06-25T22:35:19.985Z,99.90
2017-06-25T22:37:48.350Z,99.90
2017-06-25T22:40:16.609Z,99.90
2017-06-25T22:42:44.924Z,99.90
2017-06-25T22:45:13.193Z,99.90
2017-06-25T22:47:41.471Z,99.90
2017-06-25T22:50:09.834Z,99.90
2017-06-25T22:52:38.121Z,99.90
2017-06-25T22:55:06.399Z,99.90
2017-06-25T22:57:34.773Z,99.90
2017-06-25T23:00:03.163Z,99.90
2017-06-25T23:02:31.433Z,99.90
2017-06-25T23:04:59.692Z,99.90
2017-06-25T23:07:27.990Z,99.90
2017-06-25T23:09:56.279Z,99.90
2017-06-25T23:12:24.647Z,99.90
2017-06-25T23:14:53.025Z,99.90
2017-06-25T23:17:21.387Z,99.90
2017-06-25T23:19:49.664Z,99.90
2017-06-25T23:22:18.727Z,99.90
2017-06-25T23:24:47.016Z,99.90
2017-06-25T23:27:15.288Z,99.90
2017-06-25T23:29:43.575Z,99.90
2017-06-25T23:32:11.922Z,99.90
2017-06-25T23:34:40.209Z,99.90
2017-06-25T23:37:08.476Z,99.90
2017-06-25T23:39:36.882Z,99.90
2017-06-25T23:42:05.142Z,99.90
2017-06-25T23:44:33.436Z,99.90
2017-06-25T23:47:01.795Z,99.90
2017-06-25T23:49:30.094Z,99.90
2017-06-25T23:51:58.327Z,99.90
2017-06-25T23:54:26.622Z,99.90
2017-06-25T23:56:54.898Z,99.90
2017-06-25T23:59:23.200Z,99.90
